Time;durP1;ratioP1;P1;durP2;ratioP2;P2;SDS_P1;SDS_P2;PMS_P1;PMS_P2;Temp;Humidity;BMP_temperature;BMP_pressure;BME280_temperature;BME280_humidity;BME280_pressure;Samples;Min_cycle;Max_cycle;Signal;HPM_P1;HPM_P2
2023/06/21 00:01:57;;;;;;;9.73;8.73;;;;;26.00;101075.00;;;;5089929;28;20573;-77
2023/06/21 00:04:24;;;;;;;10.23;8.80;;;;;26.10;101070.00;;;;5090120;28;20209;-77
2023/06/21 00:06:52;;;;;;;10.63;9.27;;;;;26.00;101068.00;;;;5087835;28;20202;-78
2023/06/21 00:09:19;;;;;;;10.07;8.52;;;;;26.00;101062.00;;;;5087192;28;20194;-77
2023/06/21 00:11:46;;;;;;;10.38;8.73;;;;;26.00;101061.00;;;;5080980;28;20240;-77
2023/06/21 00:14:14;;;;;;;11.05;9.13;;;;;26.00;101063.00;;;;5082772;28;20195;-77
2023/06/21 00:16:44;;;;;;;9.88;8.85;;;;;25.90;101048.00;;;;5090031;28;20640;-77
2023/06/21 00:19:11;;;;;;;9.63;8.13;;;;;25.90;101047.00;;;;5087629;28;20202;-77
2023/06/21 00:21:39;;;;;;;9.43;8.05;;;;;25.90;101064.00;;;;5087679;28;20735;-77
2023/06/21 00:24:07;;;;;;;9.18;8.25;;;;;25.90;101057.00;;;;5088639;28;20246;-77
2023/06/21 00:26:35;;;;;;;10.00;8.70;;;;;25.90;101056.00;;;;5087643;28;20685;-77
2023/06/21 00:29:02;;;;;;;11.18;8.63;;;;;25.90;101063.00;;;;5083150;28;20190;-77
2023/06/21 00:31:30;;;;;;;10.55;8.48;;;;;25.80;101065.00;;;;5088577;28;20256;-77
2023/06/21 00:33:59;;;;;;;8.38;7.55;;;;;25.80;101072.00;;;;5082499;28;20241;-77
2023/06/21 00:36:26;;;;;;;8.40;7.22;;;;;25.80;101077.00;;;;5087799;28;20202;-77
2023/06/21 00:38:53;;;;;;;9.82;7.63;;;;;25.70;101081.00;;;;5085561;28;20203;-77
2023/06/21 00:41:21;;;;;;;8.63;7.78;;;;;25.70;101089.00;;;;5088222;28;20198;-77
2023/06/21 00:43:49;;;;;;;8.63;7.20;;;;;25.70;101087.00;;;;5087561;28;20194;-77
2023/06/21 00:46:16;;;;;;;8.35;6.88;;;;;25.70;101088.00;;;;5088055;28;20209;-77
2023/06/21 00:48:43;;;;;;;8.05;6.63;;;;;25.60;101093.00;;;;5087204;28;20202;-77
2023/06/21 00:51:13;;;;;;;8.27;7.05;;;;;25.60;101087.00;;;;5088585;28;20206;-77
2023/06/21 00:53:41;;;;;;;9.13;7.65;;;;;25.60;101092.00;;;;5088797;28;20671;-77
2023/06/21 00:56:09;;;;;;;9.27;8.20;;;;;25.60;101094.00;;;;5086710;28;20203;-77
2023/06/21 00:58:37;;;;;;;11.70;7.32;;;;;25.60;101103.00;;;;5088089;28;20221;-77
2023/06/21 01:01:04;;;;;;;8.82;7.50;;;;;25.50;101099.00;;;;5086000;28;20209;-77
2023/06/21 01:03:32;;;;;;;8.52;7.28;;;;;25.50;101104.00;;;;5075361;28;20213;-77
2023/06/21 01:06:12;;;;;;;8.85;7.60;;;;;25.50;101104.00;;;;5085493;28;20198;-77
2023/06/21 01:08:50;;;;;;;10.02;8.45;;;;;25.50;101105.00;;;;5099733;28;20280;-77
2023/06/21 01:11:24;;;;;;;9.63;7.32;;;;;25.40;101110.00;;;;5085639;28;20217;-77
2023/06/21 01:14:04;;;;;;;11.02;7.47;;;;;25.40;101104.00;;;;5087629;28;20194;-77
2023/06/21 01:16:38;;;;;;;9.73;7.47;;;;;25.40;101103.00;;;;5078932;28;20202;-77
2023/06/21 01:19:07;;;;;;;9.15;8.13;;;;;25.40;101117.00;;;;5081819;28;20198;-77
2023/06/21 01:21:35;;;;;;;8.82;7.93;;;;;25.40;101119.00;;;;5088115;28;20664;-77
2023/06/21 01:24:25;;;;;;;8.60;7.70;;;;;25.20;101121.00;;;;5087870;28;20207;-77
2023/06/21 01:27:22;;;;;;;11.95;8.35;;;;;25.20;101120.00;;;;5088459;28;20633;-77
2023/06/21 01:29:55;;;;;;;9.45;8.23;;;;;25.30;101116.00;;;;5078654;28;20226;-77
2023/06/21 01:32:24;;;;;;;8.68;7.50;;;;;25.30;101116.00;;;;5087123;28;20264;-77
2023/06/21 01:34:53;;;;;;;8.50;7.45;;;;;25.30;101113.00;;;;5087396;28;20198;-77
2023/06/21 01:37:21;;;;;;;10.70;8.95;;;;;25.30;101114.00;;;;5084530;28;20186;-77
2023/06/21 01:39:50;;;;;;;10.25;9.20;;;;;25.20;101113.00;;;;5086128;28;20201;-77
2023/06/21 01:42:17;;;;;;;8.93;7.70;;;;;25.20;101119.00;;;;5100438;28;20197;-77
2023/06/21 01:44:45;;;;;;;9.73;8.65;;;;;25.20;101117.00;;;;5089648;28;20294;-78
2023/06/21 01:47:14;;;;;;;8.70;7.82;;;;;25.20;101108.00;;;;5092084;28;20202;-77
2023/06/21 01:49:43;;;;;;;9.85;8.85;;;;;25.20;101117.00;;;;5088355;28;20213;-77
2023/06/21 01:52:11;;;;;;;9.90;8.60;;;;;25.20;101120.00;;;;5092339;28;20615;-77
2023/06/21 01:54:42;;;;;;;10.73;9.63;;;;;25.10;101113.00;;;;5082300;28;20288;-77
2023/06/21 01:57:11;;;;;;;11.63;9.02;;;;;25.20;101115.00;;;;5078171;28;20666;-77
2023/06/21 01:59:38;;;;;;;15.70;8.50;;;;;25.10;101107.00;;;;5088636;28;20202;-77
2023/06/21 02:02:08;;;;;;;11.27;10.10;;;;;25.10;101110.00;;;;5088212;28;20248;-78
2023/06/21 02:04:38;;;;;;;13.10;10.48;;;;;25.10;101119.00;;;;5078708;28;20714;-77
2023/06/21 02:07:07;;;;;;;15.68;10.55;;;;;25.10;101127.00;;;;5090737;28;20194;-78
2023/06/21 02:09:36;;;;;;;9.75;8.75;;;;;25.10;101127.00;;;;5088926;28;20198;-77
2023/06/21 02:12:03;;;;;;;14.60;10.30;;;;;25.10;101127.00;;;;5088475;28;20214;-77
2023/06/21 02:14:31;;;;;;;11.38;10.13;;;;;25.10;101133.00;;;;5088907;28;20195;-77
2023/06/21 02:16:58;;;;;;;12.68;10.43;;;;;25.10;101132.00;;;;5085102;28;20202;-77
2023/06/21 02:19:25;;;;;;;11.77;10.20;;;;;25.10;101137.00;;;;5090078;28;20198;-77
2023/06/21 02:21:54;;;;;;;11.93;10.38;;;;;25.10;101141.00;;;;5089759;28;20198;-77
2023/06/21 02:24:22;;;;;;;13.35;11.32;;;;;25.10;101153.00;;;;5088623;28;20255;-77
2023/06/21 02:26:49;;;;;;;15.18;11.80;;;;;25.10;101154.00;;;;5086114;28;20205;-78
2023/06/21 02:29:16;;;;;;;16.65;12.55;;;;;25.10;101150.00;;;;5085875;28;20186;-78
2023/06/21 02:31:44;;;;;;;15.80;12.20;;;;;25.10;101159.00;;;;5079497;28;20581;-77
2023/06/21 02:34:11;;;;;;;13.38;11.27;;;;;25.10;101163.00;;;;5099297;28;20206;-77
2023/06/21 02:36:38;;;;;;;13.50;11.52;;;;;25.10;101163.00;;;;5087982;28;20190;-77
2023/06/21 02:39:08;;;;;;;15.80;13.43;;;;;25.10;101164.00;;;;5088224;28;20244;-77
2023/06/21 02:41:35;;;;;;;15.18;12.05;;;;;25.10;101169.00;;;;5087005;28;20202;-77
2023/06/21 02:44:03;;;;;;;15.85;12.88;;;;;25.10;101156.00;;;;5089850;28;20202;-77
2023/06/21 02:46:30;;;;;;;16.52;13.77;;;;;25.10;101163.00;;;;5086311;28;20663;-77
2023/06/21 02:48:57;;;;;;;18.63;13.55;;;;;25.10;101166.00;;;;5087906;28;20206;-77
2023/06/21 02:51:25;;;;;;;18.90;13.80;;;;;25.10;101175.00;;;;5102379;28;20213;-77
2023/06/21 02:53:52;;;;;;;16.48;13.35;;;;;25.10;101169.00;;;;5083520;28;20596;-77
2023/06/21 02:56:21;;;;;;;16.30;13.38;;;;;25.10;101173.00;;;;5085942;28;20199;-78
2023/06/21 02:58:48;;;;;;;15.88;13.57;;;;;25.20;101171.00;;;;5087539;28;20206;-78
2023/06/21 03:01:16;;;;;;;18.38;14.23;;;;;25.20;101177.00;;;;5084186;28;20190;-77
2023/06/21 03:03:45;;;;;;;19.20;13.93;;;;;25.20;101171.00;;;;5084907;28;20201;-77
2023/06/21 03:06:12;;;;;;;16.85;14.57;;;;;25.20;101170.00;;;;5088856;28;20804;-78
2023/06/21 03:08:40;;;;;;;16.58;13.55;;;;;25.20;101171.00;;;;5088814;28;20230;-77
2023/06/21 03:11:08;;;;;;;18.05;14.25;;;;;25.20;101172.00;;;;5088171;28;20267;-77
2023/06/21 03:13:38;;;;;;;17.52;14.38;;;;;25.20;101177.00;;;;5085337;28;20588;-78
2023/06/21 03:16:06;;;;;;;16.50;12.82;;;;;25.20;101185.00;;;;5088380;28;20271;-77
2023/06/21 03:18:33;;;;;;;16.42;13.55;;;;;25.20;101185.00;;;;5083568;28;20203;-78
2023/06/21 03:21:01;;;;;;;17.27;13.57;;;;;25.20;101195.00;;;;5086505;28;20209;-77
2023/06/21 03:23:29;;;;;;;17.20;13.25;;;;;25.20;101199.00;;;;5088562;28;20198;-77
2023/06/21 03:25:56;;;;;;;21.35;15.27;;;;;25.20;101201.00;;;;5096708;28;20296;-78
2023/06/21 03:28:24;;;;;;;16.17;13.85;;;;;25.20;101211.00;;;;5088805;28;20202;-77
2023/06/21 03:30:52;;;;;;;16.00;13.53;;;;;25.20;101208.00;;;;5051796;28;1054744;-77
2023/06/21 03:33:20;;;;;;;18.20;13.95;;;;;25.20;101219.00;;;;5087629;28;20218;-77
2023/06/21 03:35:47;;;;;;;16.35;13.18;;;;;25.20;101225.00;;;;5085000;28;20201;-77
2023/06/21 03:38:15;;;;;;;13.60;12.10;;;;;25.10;101221.00;;;;5087995;28;20223;-77
2023/06/21 03:40:42;;;;;;;16.77;13.50;;;;;25.10;101227.00;;;;5089399;28;20198;-77
2023/06/21 03:43:09;;;;;;;18.08;14.75;;;;;25.10;101213.00;;;;5088887;28;20198;-77
2023/06/21 03:45:37;;;;;;;16.10;13.77;;;;;25.10;101222.00;;;;5087579;28;20198;-77
2023/06/21 03:48:06;;;;;;;17.27;13.65;;;;;25.10;101221.00;;;;5088480;28;20202;-77
2023/06/21 03:50:34;;;;;;;14.90;12.70;;;;;25.10;101224.00;;;;5089362;28;20190;-78
2023/06/21 03:53:01;;;;;;;16.05;13.55;;;;;25.10;101226.00;;;;5087745;28;20217;-77
2023/06/21 03:55:28;;;;;;;16.63;14.13;;;;;25.10;101234.00;;;;5088567;28;20209;-77
2023/06/21 03:57:56;;;;;;;17.77;12.82;;;;;25.10;101239.00;;;;5089476;28;20198;-78
2023/06/21 04:00:23;;;;;;;17.77;12.85;;;;;25.00;101238.00;;;;5087605;28;20186;-77
2023/06/21 04:02:50;;;;;;;15.07;12.70;;;;;25.10;101250.00;;;;5087873;28;20201;-78
2023/06/21 04:05:19;;;;;;;13.93;12.45;;;;;25.00;101256.00;;;;5087077;28;20201;-78
2023/06/21 04:07:47;;;;;;;13.18;11.80;;;;;25.00;101255.00;;;;5088796;28;20549;-78
2023/06/21 04:10:14;;;;;;;16.67;12.73;;;;;25.00;101256.00;;;;5080439;28;20695;-77
2023/06/21 04:12:42;;;;;;;14.52;12.45;;;;;25.00;101256.00;;;;5087985;28;20233;-78
2023/06/21 04:15:11;;;;;;;13.52;11.40;;;;;25.00;101257.00;;;;5094220;28;20246;-77
2023/06/21 04:17:38;;;;;;;14.02;11.20;;;;;25.00;101261.00;;;;5076146;28;20285;-77
2023/06/21 04:20:11;;;;;;;14.63;12.00;;;;;25.00;101254.00;;;;5073240;28;20209;-77
2023/06/21 04:22:41;;;;;;;13.35;10.88;;;;;25.00;101253.00;;;;5084781;28;20228;-77
2023/06/21 04:25:09;;;;;;;15.05;11.15;;;;;25.00;101251.00;;;;5085932;28;20222;-78
2023/06/21 04:27:36;;;;;;;13.68;11.68;;;;;25.00;101259.00;;;;5084626;28;20198;-79
2023/06/21 04:30:03;;;;;;;14.63;11.38;;;;;25.10;101266.00;;;;5087368;28;20202;-80
2023/06/21 04:32:32;;;;;;;14.73;11.70;;;;;25.10;101274.00;;;;5091532;28;20245;-79
2023/06/21 04:35:00;;;;;;;12.00;10.80;;;;;25.10;101268.00;;;;5088151;28;20215;-79
2023/06/21 04:37:28;;;;;;;13.93;11.65;;;;;25.10;101270.00;;;;5085748;28;20202;-79
2023/06/21 04:39:57;;;;;;;14.40;11.90;;;;;25.10;101266.00;;;;5086955;28;20218;-80
2023/06/21 04:42:25;;;;;;;14.55;12.02;;;;;25.10;101267.00;;;;5082154;28;20284;-79
2023/06/21 04:44:54;;;;;;;16.67;12.13;;;;;25.20;101268.00;;;;5087340;28;20201;-79
2023/06/21 04:47:24;;;;;;;17.42;11.82;;;;;25.20;101270.00;;;;5084621;28;20293;-79
2023/06/21 04:49:53;;;;;;;15.00;11.55;;;;;25.20;101268.00;;;;5083285;28;20190;-79
2023/06/21 04:52:20;;;;;;;13.90;11.27;;;;;25.20;101270.00;;;;5087938;28;20210;-79
2023/06/21 04:54:47;;;;;;;13.88;11.15;;;;;25.30;101276.00;;;;5084020;28;20202;-78
2023/06/21 04:57:16;;;;;;;15.55;11.73;;;;;25.30;101280.00;;;;5084260;28;20194;-79
2023/06/21 04:59:43;;;;;;;13.45;10.73;;;;;25.30;101284.00;;;;5080758;28;20299;-78
2023/06/21 05:02:11;;;;;;;14.13;11.98;;;;;25.40;101283.00;;;;5081164;28;20206;-79
2023/06/21 05:04:39;;;;;;;15.88;12.95;;;;;25.40;101276.00;;;;5087507;28;20668;-79
2023/06/21 05:07:06;;;;;;;14.80;11.23;;;;;25.40;101280.00;;;;5088713;28;20194;-77
2023/06/21 05:09:33;;;;;;;14.30;11.60;;;;;25.50;101281.00;;;;5087561;28;20202;-78
2023/06/21 05:12:01;;;;;;;14.25;11.02;;;;;25.50;101277.00;;;;5087802;28;20305;-77
2023/06/21 05:14:29;;;;;;;14.48;12.07;;;;;25.60;101286.00;;;;5085076;28;20222;-78
2023/06/21 05:16:57;;;;;;;14.85;11.27;;;;;25.60;101281.00;;;;5084481;28;20195;-77
2023/06/21 05:19:24;;;;;;;12.55;10.70;;;;;25.60;101285.00;;;;5084850;28;20187;-77
2023/06/21 05:21:51;;;;;;;13.23;9.85;;;;;25.70;101283.00;;;;5082276;28;20198;-76
2023/06/21 05:24:19;;;;;;;12.73;10.35;;;;;25.70;101289.00;;;;5085954;28;20205;-75
2023/06/21 05:26:46;;;;;;;14.68;10.02;;;;;25.80;101297.00;;;;5088478;28;20205;-76
2023/06/21 05:29:14;;;;;;;11.55;9.60;;;;;25.80;101300.00;;;;5087833;28;20209;-76
2023/06/21 05:31:44;;;;;;;14.73;9.80;;;;;25.80;101302.00;;;;5085464;28;20335;-77
2023/06/21 05:34:12;;;;;;;10.05;8.27;;;;;25.90;101304.00;;;;5084443;28;20683;-77
2023/06/21 05:36:41;;;;;;;12.40;9.65;;;;;25.90;101298.00;;;;5084298;28;20206;-77
2023/06/21 05:39:08;;;;;;;14.35;9.50;;;;;26.00;101305.00;;;;5085980;28;20202;-77
2023/06/21 05:41:35;;;;;;;13.02;9.00;;;;;26.00;101309.00;;;;5083924;28;20668;-78
2023/06/21 05:44:05;;;;;;;12.40;9.63;;;;;26.00;101309.00;;;;5081325;28;20202;-77
2023/06/21 05:46:32;;;;;;;11.98;9.73;;;;;26.10;101320.00;;;;5086835;28;20202;-78
2023/06/21 05:49:01;;;;;;;12.00;9.57;;;;;26.10;101318.00;;;;5085724;28;20217;-77
2023/06/21 05:51:28;;;;;;;12.98;10.00;;;;;26.20;101317.00;;;;5085704;28;20197;-78
2023/06/21 05:53:56;;;;;;;9.98;8.52;;;;;26.20;101324.00;;;;5083944;28;20222;-78
2023/06/21 05:56:24;;;;;;;11.02;8.65;;;;;26.30;101327.00;;;;5085468;28;20198;-81
2023/06/21 05:58:51;;;;;;;9.90;8.05;;;;;26.30;101332.00;;;;5083734;28;20203;-80
2023/06/21 06:01:19;;;;;;;11.38;8.32;;;;;26.40;101334.00;;;;5085512;28;20209;-80
2023/06/21 06:03:46;;;;;;;10.52;7.65;;;;;26.50;101338.00;;;;5088095;28;20203;-81
2023/06/21 06:06:16;;;;;;;9.25;8.27;;;;;26.50;101343.00;;;;5087652;28;20210;-82
2023/06/21 06:08:44;;;;;;;10.20;8.85;;;;;26.60;101347.00;;;;5083108;28;20190;-83
2023/06/21 06:11:11;;;;;;;11.43;8.75;;;;;26.60;101358.00;;;;5081226;28;20221;-82
2023/06/21 06:13:39;;;;;;;12.38;9.10;;;;;26.70;101362.00;;;;5082269;28;20222;-80
2023/06/21 06:16:06;;;;;;;12.00;8.98;;;;;26.70;101367.00;;;;5085648;28;20199;-82
2023/06/21 06:18:34;;;;;;;10.52;8.48;;;;;26.70;101368.00;;;;5086568;28;20202;-82
2023/06/21 06:21:02;;;;;;;9.27;6.85;;;;;26.70;101371.00;;;;5087054;28;20652;-82
2023/06/21 06:23:30;;;;;;;10.05;6.85;;;;;26.70;101368.00;;;;5086863;28;20190;-82
2023/06/21 06:25:58;;;;;;;7.90;5.70;;;;;26.70;101372.00;;;;5080040;28;20286;-82
2023/06/21 06:28:25;;;;;;;8.40;6.10;;;;;26.70;101373.00;;;;5071562;28;20195;-82
2023/06/21 06:30:52;;;;;;;6.53;5.38;;;;;26.70;101378.00;;;;5080038;28;20201;-80
2023/06/21 06:33:20;;;;;;;8.18;5.00;;;;;26.80;101385.00;;;;5090972;28;20218;-82
2023/06/21 06:35:47;;;;;;;4.82;3.53;;;;;26.80;101387.00;;;;5091134;28;20202;-83
2023/06/21 06:38:14;;;;;;;4.55;3.22;;;;;26.80;101394.00;;;;5091889;28;20687;-84
2023/06/21 06:40:43;;;;;;;4.82;3.58;;;;;26.80;101385.00;;;;5090707;28;20198;-82
2023/06/21 06:43:10;;;;;;;5.35;2.70;;;;;26.80;101393.00;;;;5078542;28;20553;-83
2023/06/21 06:45:37;;;;;;;4.50;3.15;;;;;26.80;101396.00;;;;5070016;28;20209;-84
2023/06/21 06:48:05;;;;;;;5.68;3.65;;;;;26.80;101398.00;;;;5071094;28;20203;-82
2023/06/21 06:50:32;;;;;;;3.80;2.95;;;;;26.90;101404.00;;;;5077666;28;20204;-83
2023/06/21 06:53:00;;;;;;;3.83;2.92;;;;;26.90;101405.00;;;;5091892;28;20198;-82
2023/06/21 06:55:28;;;;;;;4.25;2.60;;;;;26.90;101412.00;;;;5091379;28;20288;-83
2023/06/21 06:57:58;;;;;;;4.32;3.03;;;;;26.90;101416.00;;;;5090930;28;20201;-83
2023/06/21 07:00:25;;;;;;;3.22;2.63;;;;;27.00;101417.00;;;;5080166;28;20209;-83
2023/06/21 07:02:56;;;;;;;4.80;2.90;;;;;27.00;101419.00;;;;5090154;28;20198;-84
2023/06/21 07:05:23;;;;;;;5.88;2.78;;;;;27.10;101423.00;;;;5084986;28;20234;-83
2023/06/21 07:07:51;;;;;;;5.05;3.28;;;;;27.10;101428.00;;;;5070726;28;20198;-82
2023/06/21 07:10:18;;;;;;;5.38;3.33;;;;;27.10;101424.00;;;;5088469;28;20305;-82
2023/06/21 07:12:46;;;;;;;4.95;3.22;;;;;27.10;101430.00;;;;5090294;28;20205;-84
2023/06/21 07:15:15;;;;;;;5.50;3.22;;;;;27.10;101433.00;;;;5090846;28;20222;-82
2023/06/21 07:17:42;;;;;;;4.53;3.40;;;;;27.10;101431.00;;;;5085264;28;20579;-82
2023/06/21 07:20:12;;;;;;;4.07;2.95;;;;;27.10;101436.00;;;;5089490;28;20645;-83
2023/06/21 07:22:41;;;;;;;3.88;3.20;;;;;27.20;101429.00;;;;5090326;28;20190;-82
2023/06/21 07:25:09;;;;;;;4.57;3.22;;;;;27.20;101433.00;;;;5090276;28;20201;-83
2023/06/21 07:27:36;;;;;;;5.32;3.60;;;;;27.30;101436.00;;;;5089420;28;20190;-82
2023/06/21 07:30:05;;;;;;;3.80;3.42;;;;;27.30;101436.00;;;;5090503;28;20195;-82
2023/06/21 07:32:35;;;;;;;7.55;3.15;;;;;27.40;101431.00;;;;5088045;28;20222;-81
2023/06/21 07:35:03;;;;;;;4.47;3.05;;;;;27.40;101433.00;;;;5070106;28;20237;-82
2023/06/21 07:37:31;;;;;;;5.07;3.22;;;;;27.50;101434.00;;;;5069146;28;20206;-82
2023/06/21 07:39:58;;;;;;;3.25;2.88;;;;;27.50;101438.00;;;;5089973;28;20191;-83
2023/06/21 07:42:26;;;;;;;6.55;3.95;;;;;27.60;101444.00;;;;5088061;28;20197;-82
2023/06/21 07:44:54;;;;;;;4.97;3.38;;;;;27.70;101449.00;;;;5089722;28;20198;-83
2023/06/21 07:47:22;;;;;;;4.18;3.05;;;;;27.70;101452.00;;;;5090221;28;20198;-83
2023/06/21 07:49:51;;;;;;;4.72;3.33;;;;;27.70;101451.00;;;;5089008;28;20241;-83
2023/06/21 07:52:18;;;;;;;5.60;2.78;;;;;27.70;101456.00;;;;5089651;28;20202;-83
2023/06/21 07:54:48;;;;;;;4.35;3.03;;;;;27.80;101451.00;;;;5090167;28;20230;-82
2023/06/21 07:57:16;;;;;;;3.03;2.67;;;;;27.80;101450.00;;;;5090665;28;20206;-82
2023/06/21 07:59:43;;;;;;;3.13;2.65;;;;;27.80;101455.00;;;;5089204;28;20183;-84
2023/06/21 08:02:13;;;;;;;2.30;2.00;;;;;27.80;101459.00;;;;5081562;28;20701;-83
2023/06/21 08:04:42;;;;;;;3.35;2.63;;;;;27.90;101462.00;;;;5068979;28;20210;-83
2023/06/21 08:07:11;;;;;;;3.10;1.98;;;;;27.90;101455.00;;;;5069703;28;20206;-82
2023/06/21 08:09:38;;;;;;;2.97;1.85;;;;;28.00;101461.00;;;;5070663;28;20198;-83
2023/06/21 08:12:06;;;;;;;2.50;1.80;;;;;28.00;101464.00;;;;5084675;28;20229;-82
2023/06/21 08:14:33;;;;;;;3.20;1.88;;;;;28.10;101464.00;;;;5087530;28;20238;-82
2023/06/21 08:17:01;;;;;;;2.72;1.67;;;;;28.20;101464.00;;;;5088673;28;20578;-80
2023/06/21 08:19:29;;;;;;;2.65;1.80;;;;;28.20;101468.00;;;;5087088;28;20195;-83
2023/06/21 08:21:56;;;;;;;2.17;1.63;;;;;28.30;101468.00;;;;5080084;28;20199;-84
2023/06/21 08:24:27;;;;;;;3.00;1.45;;;;;28.30;101473.00;;;;5070072;28;20282;-83
2023/06/21 08:26:55;;;;;;;1.88;1.45;;;;;28.40;101474.00;;;;5068969;28;20260;-83
2023/06/21 08:29:22;;;;;;;3.10;1.98;;;;;28.50;101472.00;;;;5073465;28;20186;-81
2023/06/21 08:31:49;;;;;;;1.73;1.40;;;;;28.60;101479.00;;;;5086317;28;20599;-82
2023/06/21 08:34:17;;;;;;;3.90;1.33;;;;;28.70;101480.00;;;;5086482;28;20222;-82
2023/06/21 08:36:44;;;;;;;1.58;1.17;;;;;28.80;101485.00;;;;5086838;28;20194;-81
2023/06/21 08:39:12;;;;;;;1.85;1.20;;;;;28.80;101490.00;;;;5088974;28;20198;-82
2023/06/21 08:41:42;;;;;;;2.70;1.70;;;;;28.90;101483.00;;;;5081345;28;20211;-83
2023/06/21 08:44:09;;;;;;;1.45;1.35;;;;;29.00;101484.00;;;;5075300;28;20195;-85
2023/06/21 08:46:37;;;;;;;1.65;1.35;;;;;29.10;101483.00;;;;5089864;28;20209;-89
2023/06/21 08:49:06;;;;;;;2.95;1.40;;;;;29.10;101484.00;;;;5088911;28;21206;-82
2023/06/21 08:51:36;;;;;;;3.75;1.40;;;;;29.20;101491.00;;;;5088292;28;20237;-82
2023/06/21 08:54:07;;;;;;;1.80;1.58;;;;;29.20;101493.00;;;;5088045;28;20222;-84
2023/06/21 08:56:44;;;;;;;1.55;1.20;;;;;29.20;101503.00;;;;5086977;28;20196;-83
2023/06/21 08:59:19;;;;;;;2.78;1.20;;;;;29.10;101502.00;;;;5085989;28;20573;-86
2023/06/21 09:01:55;;;;;;;3.08;1.52;;;;;29.10;101503.00;;;;5088546;28;20194;-84
2023/06/21 09:04:26;;;;;;;1.42;1.17;;;;;29.20;101505.00;;;;5088633;28;20201;-81
2023/06/21 09:06:54;;;;;;;2.88;1.45;;;;;29.20;101506.00;;;;5086900;28;20656;-81
2023/06/21 09:09:23;;;;;;;1.92;1.05;;;;;29.20;101513.00;;;;5085860;28;20199;-81
2023/06/21 09:11:56;;;;;;;2.60;0.98;;;;;29.30;101506.00;;;;5087631;28;20217;-81
2023/06/21 09:14:31;;;;;;;1.55;0.95;;;;;29.40;101519.00;;;;5088266;28;20218;-79
2023/06/21 09:17:00;;;;;;;1.52;0.88;;;;;29.50;101514.00;;;;5080510;28;20212;-81
2023/06/21 09:19:28;;;;;;;1.75;1.23;;;;;29.50;101510.00;;;;5085512;28;20570;-80
2023/06/21 09:21:57;;;;;;;1.20;1.02;;;;;29.50;101515.00;;;;5087643;28;20560;-80
2023/06/21 09:24:27;;;;;;;2.08;1.40;;;;;29.60;101510.00;;;;5087853;28;20195;-80
2023/06/21 09:26:59;;;;;;;1.33;1.20;;;;;29.70;101513.00;;;;5087976;28;20206;-80
2023/06/21 09:29:34;;;;;;;2.05;1.20;;;;;29.70;101511.00;;;;5087430;28;20198;-80
2023/06/21 09:32:02;;;;;;;4.10;1.42;;;;;29.90;101510.00;;;;5085403;28;20299;-78
2023/06/21 09:34:29;;;;;;;2.05;1.60;;;;;30.00;101511.00;;;;5086590;28;20217;-80
2023/06/21 09:36:58;;;;;;;4.43;1.73;;;;;30.00;101511.00;;;;5087908;28;20201;-80
2023/06/21 09:39:27;;;;;;;4.13;1.52;;;;;30.10;101512.00;;;;5086308;28;20214;-78
2023/06/21 09:41:57;;;;;;;2.20;1.63;;;;;30.20;101518.00;;;;5087129;28;20194;-79
2023/06/21 09:44:25;;;;;;;2.50;1.48;;;;;30.30;101518.00;;;;5087835;28;20280;-79
2023/06/21 09:46:58;;;;;;;2.10;1.35;;;;;30.40;101522.00;;;;5087287;28;20209;-80
2023/06/21 09:49:28;;;;;;;1.88;1.27;;;;;30.50;101530.00;;;;5071353;28;20660;-78
2023/06/21 09:51:56;;;;;;;2.55;1.20;;;;;30.60;101523.00;;;;5068190;28;20199;-80
2023/06/21 09:54:24;;;;;;;1.25;0.88;;;;;30.60;101523.00;;;;5068160;28;20218;-79
2023/06/21 09:56:51;;;;;;;2.05;0.90;;;;;30.70;101531.00;;;;5068452;28;20562;-79
2023/06/21 09:59:22;;;;;;;2.45;1.20;;;;;30.70;101528.00;;;;5076171;28;20201;-79
2023/06/21 10:01:50;;;;;;;0.85;0.68;;;;;30.80;101531.00;;;;5090129;28;20573;-80
2023/06/21 10:04:18;;;;;;;1.27;0.80;;;;;30.90;101537.00;;;;5086430;28;20209;-80
2023/06/21 10:06:50;;;;;;;1.45;0.82;;;;;31.00;101526.00;;;;5080881;28;20206;-79
2023/06/21 10:09:17;;;;;;;0.98;0.70;;;;;31.10;101539.00;;;;5078550;28;20191;-79
2023/06/21 10:11:45;;;;;;;0.85;0.80;;;;;31.10;101544.00;;;;5088825;28;20251;-78
2023/06/21 10:14:25;;;;;;;1.45;1.05;;;;;31.10;101544.00;;;;5088560;28;20216;-79
2023/06/21 10:16:54;;;;;;;1.58;1.00;;;;;31.30;101548.00;;;;5089423;28;20290;-79
2023/06/21 10:19:23;;;;;;;1.10;0.90;;;;;31.30;101542.00;;;;5090609;28;20564;-79
2023/06/21 10:21:58;;;;;;;1.60;0.68;;;;;31.40;101546.00;;;;5089089;28;20195;-80
2023/06/21 10:24:27;;;;;;;4.22;1.10;;;;;31.40;101545.00;;;;5077543;28;20305;-79
2023/06/21 10:26:55;;;;;;;2.90;1.13;;;;;31.40;101543.00;;;;5084948;28;20248;-79
2023/06/21 10:29:27;;;;;;;1.95;0.80;;;;;31.30;101549.00;;;;5087936;28;20195;-79
2023/06/21 10:31:55;;;;;;;1.63;0.95;;;;;31.40;101553.00;;;;5089136;28;20228;-79
2023/06/21 10:34:27;;;;;;;2.90;1.33;;;;;31.30;101551.00;;;;5089424;28;20203;-80
2023/06/21 10:37:01;;;;;;;4.15;0.93;;;;;31.30;101553.00;;;;5086834;28;20263;-79
2023/06/21 10:39:32;;;;;;;2.05;1.20;;;;;31.40;101559.00;;;;5090820;28;20585;-83
2023/06/21 10:42:00;;;;;;;2.58;1.30;;;;;31.50;101557.00;;;;5071909;28;20202;-81
2023/06/21 10:44:30;;;;;;;1.70;1.52;;;;;31.50;101565.00;;;;5070568;28;20207;-82
2023/06/21 10:47:00;;;;;;;1.88;1.10;;;;;31.60;101562.00;;;;5086773;28;20206;-82
2023/06/21 10:49:29;;;;;;;4.10;1.63;;;;;31.60;101559.00;;;;5091207;28;20731;-84
2023/06/21 10:51:58;;;;;;;1.30;1.00;;;;;31.60;101567.00;;;;5090781;28;20201;-82
2023/06/21 10:54:27;;;;;;;3.47;1.25;;;;;31.60;101567.00;;;;5090758;28;20200;-82
2023/06/21 10:56:55;;;;;;;1.98;1.02;;;;;31.70;101570.00;;;;5083284;28;20198;-81
2023/06/21 10:59:24;;;;;;;1.42;0.80;;;;;31.70;101578.00;;;;5083992;28;20206;-84
2023/06/21 11:01:53;;;;;;;1.35;0.90;;;;;31.80;101580.00;;;;5090923;28;20668;-84
2023/06/21 11:04:21;;;;;;;1.52;0.82;;;;;31.80;101577.00;;;;5090613;28;20272;-82
2023/06/21 11:06:57;;;;;;;2.75;0.85;;;;;31.80;101581.00;;;;5088077;28;20205;-83
2023/06/21 11:09:24;;;;;;;1.42;0.80;;;;;31.90;101595.00;;;;5071511;28;20198;-86
2023/06/21 11:11:53;;;;;;;1.95;1.17;;;;;31.90;101587.00;;;;5091074;28;20217;-84
2023/06/21 11:14:29;;;;;;;2.78;0.80;;;;;31.80;101595.00;;;;5083483;28;20194;-86
2023/06/21 11:17:09;;;;;;;1.52;1.15;;;;;31.80;101590.00;;;;5088052;28;20205;-88
2023/06/21 11:19:37;;;;;;;1.77;0.98;;;;;31.90;101594.00;;;;5077937;28;20237;-84
2023/06/21 11:22:15;;;;;;;2.53;1.30;;;;;31.80;101594.00;;;;5090605;28;20259;-86
2023/06/21 11:24:51;;;;;;;2.05;1.33;;;;;31.90;101591.00;;;;5080154;28;20214;-84
2023/06/21 11:27:18;;;;;;;1.60;1.15;;;;;32.00;101599.00;;;;5071542;28;20201;-83
2023/06/21 11:29:59;;;;;;;1.20;0.75;;;;;31.90;101592.00;;;;5069551;28;20207;-86
2023/06/21 11:32:30;;;;;;;1.58;0.98;;;;;32.00;101585.00;;;;5075498;28;20756;-86
2023/06/21 11:34:58;;;;;;;0.73;0.60;;;;;32.00;101602.00;;;;5078651;28;20310;-85
2023/06/21 11:37:40;;;;;;;1.65;1.10;;;;;31.90;101598.00;;;;5088567;28;20202;-85
2023/06/21 11:40:10;;;;;;;1.48;0.88;;;;;32.00;101598.00;;;;5084260;28;20201;-84
2023/06/21 11:42:42;;;;;;;1.75;0.90;;;;;32.10;101604.00;;;;5087267;28;20202;-87
2023/06/21 11:45:21;;;;;;;1.42;0.70;;;;;32.00;101599.00;;;;5083270;28;20200;-83
2023/06/21 11:48:08;;;;;;;1.58;1.05;;;;;31.90;101596.00;;;;5089956;28;20197;-88
2023/06/21 11:50:36;;;;;;;1.02;0.73;;;;;32.00;101594.00;;;;5086536;28;20697;-85
2023/06/21 11:53:16;;;;;;;1.52;0.95;;;;;31.90;101599.00;;;;5086176;28;20293;-87
2023/06/21 11:55:45;;;;;;;2.13;1.00;;;;;32.10;101614.00;;;;5085119;28;20225;-87
2023/06/21 11:58:13;;;;;;;1.70;0.93;;;;;32.10;101596.00;;;;5084693;28;20220;-89
2023/06/21 12:00:41;;;;;;;1.55;0.95;;;;;32.10;101605.00;;;;5091398;28;20652;-89
2023/06/21 12:03:11;;;;;;;1.40;1.10;;;;;32.00;101598.00;;;;5086902;28;20202;-87
2023/06/21 12:05:50;;;;;;;1.00;0.93;;;;;32.00;101601.00;;;;5081953;28;20202;-86
2023/06/21 12:08:18;;;;;;;1.40;0.90;;;;;32.10;101596.00;;;;5078037;28;21017;-86
2023/06/21 12:10:46;;;;;;;1.92;0.93;;;;;32.00;101601.00;;;;5083410;28;20650;-84